Home > Products > Valid Products > TAF

000
FTUS44 KLZK 251700
TAFLIT
TAF
KLIT 251720Z 2518/2618 25012G25KT P6SM FEW025
     FM252000 27015G25KT P6SM SKC
     FM260000 27009KT P6SM SKC
     FM260600 31004KT P6SM SCT040
     FM261500 08009KT P6SM BKN040=



000
FTUS44 KLZK 251700
TAFPBF
TAF
KPBF 251720Z 2518/2618 23012G25KT P6SM SCT015
     FM251900 25015G25KT P6SM SCT015
     FM252000 27015G25KT P6SM SKC
     FM260000 27009KT P6SM SKC
     FM260600 31004KT P6SM SCT040
     FM261500 08009KT P6SM BKN040=



000
FTUS44 KLZK 251700
TAFHOT
TAF
KHOT 251720Z 2518/2618 24012G25KT P6SM FEW025
     FM252000 27015G25KT P6SM SKC
     FM260000 27009KT P6SM SKC
     FM260600 31004KT P6SM SCT040
     FM261500 08009KT P6SM BKN040=



000
FTUS44 KLZK 251700
TAFHRO
TAF
KHRO 251720Z 2518/2618 27018G28KT P6SM SKC
     FM260000 28009KT P6SM SCT050
     FM260800 32004KT P6SM OVC005
      TEMPO 2610/2614 3SM BR
     FM261600 07012KT P6SM BKN020=



000
FTUS44 KLZK 251500 AAA
TAFLIT
TAF AMD
KLIT 251504Z 2515/2612 22012G22KT P6SM SCT008 BKN012 OVC200
      WS020/23040KT
     FM251800 24012G25KT P6SM SCT040=



000
FTUS44 KLZK 251100
TAFHRO
TAF
KHRO 251136Z 2512/2612 19010KT P6SM SCT020 WS020/22045KT
     FM251400 23012G22KT P6SM SCT020 WS020/24045KT
     FM251800 27012G25KT P6SM SCT040=



000
FTUS44 KLZK 251100
TAFPBF
TAF
KPBF 251136Z 2512/2612 22010KT P6SM BKN007 OVC020 WS020/22040KT
     FM251500 22012G22KT P6SM SCT008 BKN020 OVC080 WS020/23045KT
     FM251800 24012G25KT P6SM SCT050=



000
FTUS44 KLZK 251100
TAFLIT
TAF
KLIT 251136Z 2512/2612 21008G18KT P6SM BKN007 OVC020 WS020/22040KT
     FM251500 22012G22KT P6SM SCT008 BKN020 OVC080 WS020/23040KT
     FM251800 24012G25KT P6SM SCT040=



000
FTUS44 KLZK 251100
TAFHOT
TAF
KHOT 251136Z 2512/2612 22010KT P6SM BKN007 WS020/22040KT
     FM251500 22010G22KT P6SM SCT008 BKN010 WS020/23040KT
     FM251800 23012G25KT P6SM SCT040=



000
FTUS44 KLZK 251000 AAA
TAFHOT
TAF AMD
KHOT 251018Z 2510/2606 22010KT P6SM BKN005 BKN050 WS020/22040KT
     FM251400 21010G22KT P6SM SCT005 BKN030 WS020/22040KT
     FM251700 23012G25KT P6SM SCT040=



000
FTUS44 KLZK 250700 AAA
TAFLIT
TAF AMD
KLIT 250712Z 2507/2606 20009KT P6SM BKN005 OVC025 WS020/22045KT
     FM251100 20008G15KT P6SM BKN006 OVC020 WS020/22045KT
     FM251400 22012G22KT P6SM BKN020 OVC050 WS020/22045KT
     FM251600 25012G25KT P6SM SCT040=



000
FTUS44 KLZK 250700 AAA
TAFPBF
TAF AMD
KPBF 250710Z 2507/2606 22008KT P6SM VCSH BKN006 OVC020
      WS020/21045KT
     FM251000 22008G18KT P6SM VCSH BKN006 OVC020 WS020/22045KT
     FM251400 23012G22KT P6SM BKN025 OVC050 WS020/22045KT
     FM251600 25012G25KT P6SM SCT050=



000
FTUS44 KLZK 250500
TAFPBF
TAF
KPBF 250537Z 2506/2606 14010KT 6SM -TSRA SCT020CB OVC035
      WS020/22045KT
      TEMPO 2506/2507 5SM -TSRA BR OVC025CB
     FM250700 15008KT P6SM -RA VCTS OVC020CB WS020/21045KT
     FM251000 22008G18KT P6SM VCSH SCT005 OVC020 WS020/22045KT
     FM251400 23012G22KT P6SM BKN025 OVC050 WS020/22045KT
     FM251600 25012G25KT P6SM SCT050=



000
FTUS44 KLZK 250500
TAFHRO
TAF
KHRO 250537Z 2506/2606 16010KT P6SM VCSH SCT030 OVC100
      WS020/22050KT
     FM251300 23012G22KT P6SM SCT015 BKN100
     FM251800 27012G25KT P6SM SCT040=



000
FTUS44 KLZK 250500
TAFHOT
TAF
KHOT 250537Z 2506/2606 12010G18KT P6SM VCSH BKN005 OVC050
      WS020/22040KT
      TEMPO 2506/2507 OVC005
     FM250700 18010G18KT P6SM BKN006 OVC035 WS020/22040KT
     FM251000 22010G18KT P6SM VCSH BKN025 OVC050 WS020/22040KT
     FM251400 21010G22KT P6SM BKN030
     FM251700 23012G25KT P6SM SCT040=



000
FTUS44 KLZK 250500
TAFLIT
TAF
KLIT 250537Z 2506/2606 17009KT P6SM -RA VCTS BKN006CB OVC035
      WS020/22045KT
     FM250800 17009KT P6SM VCSH BKN006 OVC015 WS020/22045KT
     FM251100 20008G15KT P6SM VCSH SCT006 OVC020 WS020/22045KT
     FM251400 22012G22KT P6SM BKN020 OVC050 WS020/22045KT
     FM251600 25012G25KT P6SM SCT040=



000
FTUS44 KLZK 250500 AAC
TAFHOT
TAF AMD
KHOT 250512Z 2505/2524 12010G18KT P6SM -RA SCT005 OVC030
      WS020/21040KT
      TEMPO 2505/2507 OVC005
     FM250700 18007KT P6SM BKN006 OVC035 WS020/21040KT
     FM251000 22009KT P6SM VCSH BKN025 OVC080 WS020/21040KT
     FM251400 21010G20KT P6SM BKN030
     FM251700 23010G20KT P6SM SCT040=



000
FTUS44 KLZK 250500 AAC
TAFHOT
TAF AMD
KHOT 250512Z 2505/2524 12010G18KT P6SM -RA SCT005 OVC030
      WS020/21040KT
      TEMPO 2505/2507 OVC005
     FM250700 18007KT P6SM BKN006 OVC035 WS020/21040KT
     FM251000 22009KT P6SM VCSH BKN025 OVC080 WS020/21040KT
     FM251400 21010G20KT P6SM BKN030
     FM251700 23010G20KT P6SM SCT040=



000
FTUS44 KLZK 250400 AAB
TAFHOT
TAF AMD
KHOT 250446Z 2505/2524 11010G15KT P6SM -RA VCTS BKN035CB OVC080
     FM250700 18007KT P6SM SCT009 BKN035 OVC080 WS020/21040KT
     FM251000 22009KT P6SM VCSH BKN025 OVC080 WS020/21040KT
     FM251400 21010G20KT P6SM BKN030
     FM251700 23010G20KT P6SM SCT040=



000
FTUS44 KLZK 250400 AAB
TAFHOT
TAF AMD
KHOT 250446Z 2505/2524 11010G15KT P6SM -RA VCTS BKN035CB OVC080
     FM250700 18007KT P6SM SCT009 BKN035 OVC080 WS020/21040KT
     FM251000 22009KT P6SM VCSH BKN025 OVC080 WS020/21040KT
     FM251400 21010G20KT P6SM BKN030
     FM251700 23010G20KT P6SM SCT040=



000
FTUS44 KLZK 250400 AAB
TAFLIT
TAF AMD
KLIT 250441Z 2505/2524 12009KT P6SM -RA VCTS BKN008CB OVC035
      TEMPO 2505/2506 5SM -TSRA BR OVC020CB
     FM250800 17008KT P6SM VCSH OVC015 WS020/22045KT
     FM251100 20008KT P6SM VCSH OVC020 WS020/22045KT
     FM251400 22015G25KT P6SM BKN020 OVC050
     FM251600 25010G25KT P6SM SCT040=



000
FTUS44 KLZK 250400 AAB
TAFPBF
TAF AMD
KPBF 250437Z 2505/2524 11008KT P6SM -RA OVC035
      TEMPO 2505/2507 3SM -TSRA BR OVC025CB
     FM250700 15008KT P6SM -RA VCTS OVC020CB WS020/21040KT
     FM251000 22008G18KT P6SM -RA OVC020
     FM251200 22015G25KT P6SM BKN025 OVC050
     FM251600 25010G20KT P6SM SCT050=



000
FTUS44 KLZK 250400 AAB
TAFPBF
TAF AMD
KPBF 250437Z 2505/2524 11008KT P6SM -RA OVC035
      TEMPO 2505/2507 3SM -TSRA BR OVC025CB
     FM250700 15008KT P6SM -RA VCTS OVC020CB WS020/21040KT
     FM251000 22008G18KT P6SM -RA OVC020
     FM251200 22015G25KT P6SM BKN025 OVC050
     FM251600 25010G20KT P6SM SCT050=



000
FTUS44 KLZK 250300 AAA
TAFPBF
TAF AMD
KPBF 250337Z 2504/2524 08005KT 5SM TSRA BR OVC005CB
      TEMPO 2504/2506 2SM TSRA BR OVC004CB
     FM250600 15007KT 5SM BR VCTS OVC009CB WS020/21040KT
     FM251700 22015G25KT P6SM SCT025
     FM252100 25010G20KT P6SM SKC=



000
FTUS44 KLZK 250300 AAA
TAFLIT
TAF AMD
KLIT 250336Z 2504/2524 12010KT P6SM TSRA BKN006CB OVC035
      TEMPO 2504/2508 2SM TSRA BR BKN004CB
     FM250800 17005KT 5SM BR VCTS OVC015CB WS020/22045KT
     FM251400 22015G25KT P6SM SCT015
     FM251800 25010G25KT P6SM SKC=



000
FTUS44 KLZK 250300 AAA
TAFHOT
TAF AMD
KHOT 250331Z 2504/2524 11010G15KT P6SM VCTS OVC005CB
     FM250700 18007KT 5SM BR OVC009 WS020/21040KT
     FM251400 21010G20KT P6SM SCT015
     FM251900 23010G20KT P6SM SKC=



000
FTUS44 KLZK 250300 AAA
TAFHRO
TAF AMD
KHRO 250328Z 2503/2524 14010KT P6SM VCSH OVC100 WS020/22050KT
     FM251300 23015G25KT P6SM SCT015
     FM252000 27010G20KT P6SM SKC=



000
FTUS44 KLZK 242300
TAFHRO
TAF
KHRO 242330Z 2500/2524 12007KT 5SM SHRA BR BKN014
     FM250300 18010KT 5SM BR VCSH OVC009 WS020/22050KT
     FM251300 23015G25KT P6SM SCT015
     FM252000 27010G20KT P6SM SKC=



000
FTUS44 KLZK 242300
TAFPBF
TAF
KPBF 242330Z 2500/2524 08005KT 5SM TSRA BR OVC005CB
      TEMPO 2500/2504 2SM TSRA BR OVC004CB
     FM250600 15007KT 5SM BR VCTS OVC009CB WS020/21040KT
     FM251700 22015G25KT P6SM SCT025
     FM252100 25010G20KT P6SM SKC=



000
FTUS44 KLZK 242300
TAFLIT
TAF
KLIT 242330Z 2500/2524 10005KT P6SM TSRA BKN006CB OVC035
      TEMPO 2500/2504 2SM TSRA BR BKN004CB
     FM250500 17005KT 5SM BR VCTS OVC015CB WS020/22045KT
     FM251400 22015G25KT P6SM SCT015
     FM251800 25010G25KT P6SM SKC=



000
FTUS44 KLZK 242300
TAFHOT
TAF
KHOT 242330Z 2500/2524 09007KT 5SM TSRA BR OVC006CB
      TEMPO 2500/2504 2SM BR BKN003 OVC035
     FM250700 18007KT 5SM BR OVC009 WS020/21040KT
     FM251400 21010G20KT P6SM SCT015
     FM251900 23010G20KT P6SM SKC=



000
FTUS44 KLZK 242300
TAFLIT
TAF
KLIT 242330Z 2500/2524 10005KT P6SM TSRA BKN006CB OVC035
      TEMPO 2500/2504 2SM TSRA BR BKN004CB
     FM250500 17005KT 5SM BR VCTS OVC015CB WS020/22045KT
     FM251400 22015G25KT P6SM SCT015
     FM251800 25010G25KT P6SM SKC=



000
FTUS44 KLZK 242300
TAFPBF
TAF
KPBF 242330Z 2500/2524 08005KT 5SM TSRA BR OVC005CB
      TEMPO 2500/2504 2SM TSRA BR OVC004CB
     FM250600 15007KT 5SM BR VCTS OVC009CB WS020/21040KT
     FM251700 22015G25KT P6SM SCT025
     FM252100 25010G20KT P6SM SKC=



000
FTUS44 KLZK 242300
TAFHRO
TAF
KHRO 242330Z 2500/2524 12007KT 5SM SHRA BR BKN014
     FM250300 18010KT 5SM BR VCSH OVC009 WS020/22050KT
     FM251300 23015G25KT P6SM SCT015
     FM252000 27010G20KT P6SM SKC=



000
FTUS44 KLZK 242300
TAFHOT
TAF
KHOT 242330Z 2500/2524 09007KT 5SM TSRA BR OVC006CB
      TEMPO 2500/2504 2SM BR BKN003 OVC035
     FM250700 18007KT 5SM BR OVC009 WS020/21040KT
     FM251400 21010G20KT P6SM SCT015
     FM251900 23010G20KT P6SM SKC=



000
FTUS44 KLZK 242100 AAA
TAFHOT
TAF AMD
KHOT 242145Z 2422/2518 10007KT 5SM TSRA BR OVC006CB
      TEMPO 2422/2502 3SM BR BKN003 OVC035
     FM250400 13010G20KT 5SM BR OVC009
     FM251300 22010G20KT P6SM SCT250=



000
FTUS44 KLZK 242100 AAB
TAFLIT
TAF AMD
KLIT 242140Z 2422/2518 10005KT P6SM -SHRA BKN004 OVC035
      TEMPO 2422/2424 2SM TSRA BR BKN006 OVC035CB
     FM250200 13005KT 5SM RA BR OVC004 WS020/18040KT
     FM250700 22010KT 5SM BR BKN015 OVC150
     FM251000 22015G25KT P6SM BKN100
     FM251400 20010G25KT P6SM BKN025=



000
FTUS44 KLZK 242000 AAA
TAFPBF
TAF AMD
KPBF 242039Z 2421/2518 08008KT P6SM -SHRA OVC040
      TEMPO 2421/2422 3SM TSRA BR OVC005CB
     FM242200 09010KT 3SM TSRA BR OVC005CB
      TEMPO 2422/2502 09015G25KT 1SM TSRA BR OVC004CB
     FM250200 13013G23KT 5SM TSRA BR OVC015CB
     FM250600 16013G23KT 5SM BR OVC025
     FM251300 22015G25KT P6SM BKN250=



000
FTUS44 KLZK 241900 AAA
TAFLIT
TAF AMD
KLIT 241953Z 2420/2518 12007KT P6SM -SHRA BKN006 OVC040
      TEMPO 2421/2424 3SM TSRA BR BKN006 OVC025CB
     FM250000 16010G18KT 3SM TSRA BR OVC015CB
      TEMPO 2500/2502 27015G25KT 1SM TSRA BR OVC009CB
     FM250200 13013G23KT 5SM TSRA BR OVC015CB WS020/20040KT
     FM250600 16013G23KT 5SM BR OVC025
     FM251300 22015G25KT P6SM BKN250=



000
FTUS44 KLZK 241900 AAA
TAFHRO
TAF AMD
KHRO 241910Z 2419/2518 15011G20KT P6SM OVC015
      TEMPO 2420/2424 3SM SHRA BR OVC025
     FM250000 15010G20KT 5SM -TSRA BR OVC025CB
     FM250300 16010G20KT 5SM BR OVC015 WS020/20040KT
     FM251300 24012G22KT P6SM SCT250=



000
FTUS44 KLZK 241700
TAFHRO
TAF
KHRO 241740Z 2418/2518 15011G20KT P6SM SCT025 OVC035
      TEMPO 2418/2422 3SM SHRA BR OVC025
     FM242200 15010G20KT 5SM -TSRA BR OVC025CB
     FM250300 16010G20KT 5SM BR OVC015 WS020/20040KT
     FM251300 24012G22KT P6SM SCT250=



000
FTUS44 KLZK 241700
TAFLIT
TAF
KLIT 241740Z 2418/2518 20009KT P6SM -SHRA OVC040
      TEMPO 2418/2422 3SM TSRA BR OVC025CB
     FM242200 16010G18KT 3SM TSRA BR OVC015CB
      TEMPO 2422/2502 27015G25KT 1SM TSRA BR OVC009CB
     FM250200 13013G23KT 5SM TSRA BR OVC015CB WS020/20040KT
     FM250600 16013G23KT 5SM BR OVC025
     FM251300 22015G25KT P6SM BKN250=



000
FTUS44 KLZK 241700
TAFHOT
TAF
KHOT 241740Z 2418/2518 16006KT P6SM -SHRA SCT006 OVC025
      TEMPO 2418/2422 2SM TSRA BKN006 OVC025CB
     FM242200 13007KT 5SM TSRA BR OVC025CB
     FM250400 13010G20KT 5SM BR OVC009
     FM251300 22010G20KT P6SM SCT250=



000
FTUS44 KLZK 241700
TAFPBF
TAF
KPBF 241740Z 2418/2518 17008KT P6SM -SHRA OVC040
      TEMPO 2418/2422 3SM TSRA BR OVC025CB
     FM242200 16010G18KT 3SM TSRA BR OVC015CB
      TEMPO 2422/2502 27015G25KT 1SM TSRA BR OVC009CB
     FM250200 13013G23KT 5SM TSRA BR OVC015CB
     FM250600 16013G23KT 5SM BR OVC025
     FM251300 22015G25KT P6SM BKN250=



000
FTUS44 KLZK 241600 AAB
TAFHOT
TAF AMD
KHOT 241600Z 2416/2512 16006KT P6SM -SHRA SCT009 OVC035
      TEMPO 2416/2419 2SM TSRA BKN009 OVC025CB
     FM241900 14007KT P6SM -SHRA BKN025 OVC040
     FM250000 15010G20KT 5SM -TSRA BR BKN025CB OVC040=



000
FTUS44 KLZK 241500 AAA
TAFPBF
TAF AMD
KPBF 241509Z 2415/2512 14006KT P6SM -SHRA OVC035
      TEMPO 2415/2419 3SM TSRA OVC025CB
     FM241900 14010G15KT P6SM VCSH BKN035 OVC060
     FM242000 16010G18KT P6SM -TSRA BKN030CB OVC040
      TEMPO 2422/2502 VRB15G25KT 3SM TSRA BR OVC020CB=



000
FTUS44 KLZK 241500 AAA
TAFPBF
TAF AMD
KPBF 241509Z 2415/2512 14006KT P6SM -SHRA OVC035
      TEMPO 2415/2419 3SM TSRA OVC025CB
     FM241900 14010G15KT P6SM VCSH BKN035 OVC060
     FM242000 16010G18KT P6SM -TSRA BKN030CB OVC040
      TEMPO 2422/2502 VRB15G25KT 3SM TSRA BR OVC020CB=



000
FTUS44 KLZK 241400 AAA
TAFLIT
TAF AMD
KLIT 241417Z 2414/2512 10008KT P6SM -SHRA OVC035
      TEMPO 2414/2417 2SM TSRA BR OVC025CB
     FM241700 14010G15KT P6SM VCSH BKN035 OVC060
     FM242000 16010G18KT P6SM -TSRA BKN030CB OVC040
      TEMPO 2422/2502 VRB15G25KT 3SM TSRA BR OVC020CB=



000
FTUS44 KLZK 241300 AAA
TAFHOT
TAF AMD
KHOT 241309Z 2413/2512 10006KT P6SM -SHRA OVC035
      TEMPO 2413/2416 VRB10G20KT 2SM TSRA OVC025CB
     FM241600 14007KT P6SM -SHRA BKN025 OVC040
     FM242000 16010KT P6SM VCTS SCT025CB OVC040
     FM250000 15010G20KT 5SM -TSRA BR BKN025CB OVC040=



000
FTUS44 KLZK 241300 AAA
TAFHOT
TAF AMD
KHOT 241309Z 2413/2512 10006KT P6SM -SHRA OVC035
      TEMPO 2413/2416 VRB10G20KT 2SM TSRA OVC025CB
     FM241600 14007KT P6SM -SHRA BKN025 OVC040
     FM242000 16010KT P6SM VCTS SCT025CB OVC040
     FM250000 15010G20KT 5SM -TSRA BR BKN025CB OVC040=



000
FTUS44 KLZK 241300 AAA
TAFHRO
TAF AMD
KHRO 241306Z 2413/2512 33010G18KT P6SM VCTS SCT020 OVC035CB
      TEMPO 2413/2415 VRB10G25KT 2SM TSRA OVC025CB
     FM241500 14010KT P6SM VCSH SCT025 OVC050
     FM241800 15009G18KT P6SM VCTS BKN035CB OVC050
     FM242000 15010G20KT 5SM -TSRA BR BKN025CB OVC040=



000
FTUS44 KLZK 241300 AAA
TAFHRO
TAF AMD
KHRO 241306Z 2413/2512 33010G18KT P6SM VCTS SCT020 OVC035CB
      TEMPO 2413/2415 VRB10G25KT 2SM TSRA OVC025CB
     FM241500 14010KT P6SM VCSH SCT025 OVC050
     FM241800 15009G18KT P6SM VCTS BKN035CB OVC050
     FM242000 15010G20KT 5SM -TSRA BR BKN025CB OVC040=



000
FTUS44 KLZK 241100
TAFLIT
TAF
KLIT 241139Z 2412/2512 10008KT P6SM BKN040 OVC250
     FM241400 12010KT P6SM VCSH BKN040 OVC080
      TEMPO 2415/2418 VRB10G20KT 5SM -TSRA OVC025CB
     FM241800 14010G15KT P6SM VCSH BKN035 OVC060
     FM242000 16010G18KT P6SM -TSRA BKN030CB OVC040
      TEMPO 2422/2502 VRB15G25KT 3SM TSRA BR OVC020CB=



000
FTUS44 KLZK 241100
TAFHRO
TAF
KHRO 241139Z 2412/2512 14010G18KT P6SM VCTS BKN045CB OVC100
      TEMPO 2412/2413 VRB10G25KT 5SM -TSRA OVC030CB
     FM241500 14010KT P6SM VCSH SCT025 OVC050
     FM241800 15009G18KT P6SM VCTS BKN035CB OVC050
     FM242000 15010G20KT 5SM -TSRA BR BKN025CB OVC040=



000
FTUS44 KLZK 241100
TAFHOT
TAF
KHOT 241139Z 2412/2512 12006KT P6SM VCSH BKN025 OVC050
      TEMPO 2413/2416 VRB10G20KT 5SM -TSRA OVC025CB
     FM241600 14007KT P6SM -SHRA BKN025 OVC040
     FM242000 16010KT P6SM VCTS SCT025CB OVC040
     FM250000 15010G20KT 5SM -TSRA BR BKN025CB OVC040=



000
FTUS44 KLZK 241100
TAFLIT
TAF
KLIT 241139Z 2412/2512 10008KT P6SM BKN040 OVC250
     FM241400 12010KT P6SM VCSH BKN040 OVC080
      TEMPO 2415/2418 VRB10G20KT 5SM -TSRA OVC025CB
     FM241800 14010G15KT P6SM VCSH BKN035 OVC060
     FM242000 16010G18KT P6SM -TSRA BKN030CB OVC040
      TEMPO 2422/2502 VRB15G25KT 3SM TSRA BR OVC020CB=



000
FTUS44 KLZK 241100
TAFPBF
TAF
KPBF 241139Z 2412/2512 12008KT P6SM SCT040 OVC250
     FM241400 14007KT P6SM VCSH BKN040 OVC100
      TEMPO 2415/2418 VRB10G20KT 5SM -TSRA OVC025CB
     FM241800 14010G15KT P6SM VCSH BKN035 OVC060
     FM242000 16010G18KT P6SM -TSRA BKN030CB OVC040
      TEMPO 2422/2502 VRB15G25KT 3SM TSRA BR OVC020CB=



000
FTUS44 KLZK 241100
TAFHOT
TAF
KHOT 241139Z 2412/2512 12006KT P6SM VCSH BKN025 OVC050
      TEMPO 2413/2416 VRB10G20KT 5SM -TSRA OVC025CB
     FM241600 14007KT P6SM -SHRA BKN025 OVC040
     FM242000 16010KT P6SM VCTS SCT025CB OVC040
     FM250000 15010G20KT 5SM -TSRA BR BKN025CB OVC040=



000
FTUS44 KLZK 241100
TAFHRO
TAF
KHRO 241139Z 2412/2512 14010G18KT P6SM VCTS BKN045CB OVC100
      TEMPO 2412/2413 VRB10G25KT 5SM -TSRA OVC030CB
     FM241500 14010KT P6SM VCSH SCT025 OVC050
     FM241800 15009G18KT P6SM VCTS BKN035CB OVC050
     FM242000 15010G20KT 5SM -TSRA BR BKN025CB OVC040=



000
FTUS44 KLZK 241100
TAFPBF
TAF
KPBF 241139Z 2412/2512 12008KT P6SM SCT040 OVC250
     FM241400 14007KT P6SM VCSH BKN040 OVC100
      TEMPO 2415/2418 VRB10G20KT 5SM -TSRA OVC025CB
     FM241800 14010G15KT P6SM VCSH BKN035 OVC060
     FM242000 16010G18KT P6SM -TSRA BKN030CB OVC040
      TEMPO 2422/2502 VRB15G25KT 3SM TSRA BR OVC020CB=



000
FTUS44 KLZK 241100 AAA
TAFHRO
TAF AMD
KHRO 241105Z 2411/2506 14010KT P6SM VCSH BKN045 OVC250
      TEMPO 2411/2413 VRB10G25KT 5SM -TSRA BKN030CB OVC060
     FM241300 13010KT P6SM VCSH SCT025 OVC040
     FM241800 15009G18KT P6SM VCTS BKN035CB OVC050 PROB30 2420/2502
      3SM TSRA BR BKN025CB OVC040=



000
FTUS44 KLZK 241100 AAA
TAFHRO
TAF AMD
KHRO 241105Z 2411/2506 14010KT P6SM VCSH BKN045 OVC250
      TEMPO 2411/2413 VRB10G25KT 5SM -TSRA BKN030CB OVC060
     FM241300 13010KT P6SM VCSH SCT025 OVC040
     FM241800 15009G18KT P6SM VCTS BKN035CB OVC050 PROB30 2420/2502
      3SM TSRA BR BKN025CB OVC040=



000
FTUS44 KLZK 241000 AAA
TAFHOT
TAF AMD
KHOT 241003Z 2410/2506 09006KT P6SM BKN025 OVC250
     FM241200 12006KT P6SM VCSH BKN025 OVC050
     FM241600 14007KT P6SM -SHRA BKN025 OVC040
     FM242000 16010KT P6SM VCTS SCT025CB OVC040 PROB30 2420/2502 3SM
      TSRA BR BKN025CB OVC040=



000
FTUS44 KLZK 240500
TAFHRO
TAF
KHRO 240538Z 2406/2506 14009KT P6SM BKN045 OVC250
     FM241200 13010KT P6SM VCSH SCT025 OVC040
     FM241800 15009G18KT P6SM VCTS BKN035CB OVC050 PROB30 2420/2502
      3SM TSRA BR BKN025CB OVC040=



000
FTUS44 KLZK 240500
TAFHOT
TAF
KHOT 240538Z 2406/2506 07006KT P6SM BKN040 OVC250
     FM241200 14005KT P6SM VCSH SCT020 OVC040
     FM241600 14007KT P6SM -SHRA SCT020 OVC035
     FM242000 16010KT P6SM VCTS SCT025CB OVC040 PROB30 2420/2502 3SM
      TSRA BR BKN025CB OVC040=



000
FTUS44 KLZK 240500
TAFPBF
TAF
KPBF 240538Z 2406/2506 07008KT P6SM SCT040 OVC250
     FM241300 14007KT P6SM VCSH SCT020 OVC060
     FM241600 14007KT P6SM -SHRA SCT020 OVC050
     FM242000 16010KT P6SM VCTS SCT025CB OVC040 PROB30 2420/2502 3SM
      TSRA BR BKN025CB OVC040=



000
FTUS44 KLZK 240500
TAFHRO
TAF
KHRO 240538Z 2406/2506 14009KT P6SM BKN045 OVC250
     FM241200 13010KT P6SM VCSH SCT025 OVC040
     FM241800 15009G18KT P6SM VCTS BKN035CB OVC050 PROB30 2420/2502
      3SM TSRA BR BKN025CB OVC040=



000
FTUS44 KLZK 240500
TAFLIT
TAF
KLIT 240538Z 2406/2506 07008KT P6SM SCT040 OVC250
     FM241300 14007KT P6SM VCSH SCT020 OVC060
     FM241600 14007KT P6SM -SHRA SCT020 OVC040
     FM242000 16010KT P6SM VCTS SCT025CB OVC040 PROB30 2420/2502 3SM
      TSRA BR BKN025CB OVC040=



000
FTUS44 KLZK 240500
TAFPBF
TAF
KPBF 240538Z 2406/2506 07008KT P6SM SCT040 OVC250
     FM241300 14007KT P6SM VCSH SCT020 OVC060
     FM241600 14007KT P6SM -SHRA SCT020 OVC050
     FM242000 16010KT P6SM VCTS SCT025CB OVC040 PROB30 2420/2502 3SM
      TSRA BR BKN025CB OVC040=



000
FTUS44 KLZK 240500
TAFLIT
TAF
KLIT 240538Z 2406/2506 07008KT P6SM SCT040 OVC250
     FM241300 14007KT P6SM VCSH SCT020 OVC060
     FM241600 14007KT P6SM -SHRA SCT020 OVC040
     FM242000 16010KT P6SM VCTS SCT025CB OVC040 PROB30 2420/2502 3SM
      TSRA BR BKN025CB OVC040=



000
FTUS44 KLZK 240500
TAFHOT
TAF
KHOT 240538Z 2406/2506 07006KT P6SM BKN040 OVC250
     FM241200 14005KT P6SM VCSH SCT020 OVC040
     FM241600 14007KT P6SM -SHRA SCT020 OVC035
     FM242000 16010KT P6SM VCTS SCT025CB OVC040 PROB30 2420/2502 3SM
      TSRA BR BKN025CB OVC040=



000
FTUS44 KLZK 232300
TAFHRO
TAF
KHRO 232340Z 2400/2424 14007KT P6SM BKN040
     FM241200 13010KT P6SM VCSH SCT025 OVC040
     FM241800 15012KT P6SM VCTS SCT015 BKN025CB
      TEMPO 2420/2424 2SM TSRA BKN015CB=



000
FTUS44 KLZK 232300
TAFHOT
TAF
KHOT 232340Z 2400/2424 07008KT P6SM OVC040
      TEMPO 2400/2402 OVC025
     FM241300 14007KT P6SM VCSH SCT020 OVC040
      TEMPO 2416/2420 BKN020
     FM242000 16012KT P6SM VCTS SCT012 OVC025CB
      TEMPO 2420/2424 2SM TSRA BR OVC012CB=



000
FTUS44 KLZK 232300
TAFLIT
TAF
KLIT 232340Z 2400/2424 07008KT P6SM OVC040
     FM241400 14007KT P6SM VCSH SCT020 OVC040
      TEMPO 2416/2420 BKN020
     FM242000 16012KT P6SM VCTS SCT012 OVC025CB
      TEMPO 2420/2424 2SM TSRA BR OVC012CB=



000
FTUS44 KLZK 232300
TAFPBF
TAF
KPBF 232340Z 2400/2424 06007KT P6SM OVC035
     FM241400 11007KT P6SM VCSH SCT020 OVC040
      TEMPO 2416/2420 BKN020
     FM242000 15010KT P6SM VCTS SCT012 OVC025CB
      TEMPO 2420/2424 2SM TSRA BR OVC012CB=



000
FTUS44 KLZK 232300
TAFHRO
TAF
KHRO 232340Z 2400/2424 14007KT P6SM BKN040
     FM241200 13010KT P6SM VCSH SCT025 OVC040
     FM241800 15012KT P6SM VCTS SCT015 BKN025CB
      TEMPO 2420/2424 2SM TSRA BKN015CB=



000
FTUS44 KLZK 232300
TAFLIT
TAF
KLIT 232340Z 2400/2424 07008KT P6SM OVC040
     FM241400 14007KT P6SM VCSH SCT020 OVC040
      TEMPO 2416/2420 BKN020
     FM242000 16012KT P6SM VCTS SCT012 OVC025CB
      TEMPO 2420/2424 2SM TSRA BR OVC012CB=



000
FTUS44 KLZK 232300
TAFHOT
TAF
KHOT 232340Z 2400/2424 07008KT P6SM OVC040
      TEMPO 2400/2402 OVC025
     FM241300 14007KT P6SM VCSH SCT020 OVC040
      TEMPO 2416/2420 BKN020
     FM242000 16012KT P6SM VCTS SCT012 OVC025CB
      TEMPO 2420/2424 2SM TSRA BR OVC012CB=



000
FTUS44 KLZK 232300
TAFPBF
TAF
KPBF 232340Z 2400/2424 06007KT P6SM OVC035
     FM241400 11007KT P6SM VCSH SCT020 OVC040
      TEMPO 2416/2420 BKN020
     FM242000 15010KT P6SM VCTS SCT012 OVC025CB
      TEMPO 2420/2424 2SM TSRA BR OVC012CB=



000
FTUS44 KLZK 232100 AAA
TAFLIT
TAF AMD
KLIT 232109Z 2321/2418 07007KT P6SM OVC050
     FM241400 12007KT P6SM VCSH SCT020 OVC040
      TEMPO 2414/2418 BKN020=



000
FTUS44 KLZK 231700
TAFHOT
TAF
KHOT 231740Z 2318/2418 09008KT P6SM OVC013
     FM232200 09006KT P6SM FEW015 BKN050 BKN100
     FM241100 10006KT P6SM VCSH BKN015 OVC040=



000
FTUS44 KLZK 231700
TAFLIT
TAF
KLIT 231740Z 2318/2418 06008KT P6SM FEW018 BKN035 OVC100
     FM232200 06008KT P6SM SCT050 SCT100
     FM241100 10007KT P6SM VCSH BKN015 OVC040=



000
FTUS44 KLZK 231700
TAFHRO
TAF
KHRO 231740Z 2318/2418 11013KT P6SM FEW060 OVC100
     FM240000 13005KT P6SM FEW060 SCT100
     FM241200 14012KT P6SM VCSH SCT025 OVC050=



000
FTUS44 KLZK 231700
TAFPBF
TAF
KPBF 231740Z 2318/2418 08010KT P6SM SCT070 OVC100
     FM241100 10007KT P6SM VCSH BKN015 OVC040=



000
FTUS44 KLZK 231400 AAA
TAFPBF
TAF AMD
KPBF 231428Z 2314/2412 05008KT P6SM VCSH BKN040 OVC060
     FM231600 07007KT P6SM SCT040 OVC060=



000
FTUS44 KLZK 231400 AAA
TAFLIT
TAF AMD
KLIT 231426Z 2314/2412 06007KT P6SM -RA SCT050 BKN080
     FM231600 07007KT P6SM SCT050 BKN080
     FM231800 07007KT P6SM VCSH SCT025 OVC050=



000
FTUS44 KLZK 231400 AAA
TAFHOT
TAF AMD
KHOT 231425Z 2314/2412 09009KT P6SM -RA BKN035 OVC050
     FM231600 09008KT P6SM SCT035 OVC050
     FM231800 10008KT P6SM VCSH SCT030 OVC050=



000
FTUS44 KLZK 231100
TAFHRO
TAF
KHRO 231136Z 2312/2412 12007KT P6SM SCT050 BKN100
     FM231500 12009KT P6SM VCSH BKN050 OVC100
     FM231800 12009KT P6SM SCT050 BKN250=



000
FTUS44 KLZK 231100
TAFLIT
TAF
KLIT 231136Z 2312/2412 06007KT P6SM VCTS SCT035CB OVC080
      TEMPO 2312/2316 5SM -TSRA BR BKN035CB OVC050
     FM231800 07007KT P6SM VCSH SCT025 OVC050=



000
FTUS44 KLZK 231100
TAFPBF
TAF
KPBF 231136Z 2312/2412 08006KT P6SM VCSH SCT020 OVC050
      TEMPO 2312/2315 5SM -TSRA BR OVC035CB
     FM231500 07007KT P6SM VCSH SCT025 OVC050=



000
FTUS44 KLZK 231100
TAFHOT
TAF
KHOT 231136Z 2312/2412 09006KT P6SM VCSH OVC050
      TEMPO 2312/2315 5SM -TSRA BR OVC035CB
     FM231500 09008KT P6SM VCSH SCT025 OVC050
     FM231800 10008KT P6SM VCSH SCT030 OVC050=



000
FTUS44 KLZK 230900 AAB
TAFHOT
TAF AMD
KHOT 230909Z 2309/2406 09006KT P6SM VCSH BKN050 OVC100
      TEMPO 2309/2313 6SM -RA BR BKN025 OVC040
     FM231300 09007KT P6SM -RA BKN025 OVC050
     FM231500 09008KT P6SM VCSH SCT025 OVC050
     FM231800 10008KT P6SM VCTS SCT030CB BKN080 BKN150=



000
FTUS44 KLZK 230800 AAA
TAFHOT
TAF AMD
KHOT 230823Z 2308/2406 09006KT P6SM BKN050 OVC250
      TEMPO 2308/2310 BKN025 OVC040
     FM231000 09007KT P6SM VCSH BKN025 OVC050
     FM231500 09008KT P6SM VCSH SCT025 OVC050
     FM231800 10008KT P6SM VCTS SCT030CB BKN080 BKN150=



000
FTUS44 KLZK 230800 AAA
TAFHOT
TAF AMD
KHOT 230823Z 2308/2406 09006KT P6SM BKN050 OVC250
      TEMPO 2308/2310 BKN025 OVC040
     FM231000 09007KT P6SM VCSH BKN025 OVC050
     FM231500 09008KT P6SM VCSH SCT025 OVC050
     FM231800 10008KT P6SM VCTS SCT030CB BKN080 BKN150=



000
FTUS44 KLZK 230500
TAFLIT
TAF
KLIT 230539Z 2306/2406 06006KT P6SM SCT100 BKN250
     FM230800 06007KT P6SM VCSH SCT020 BKN080 OVC150
      TEMPO 2310/2314 5SM -TSRA BR BKN035CB OVC080
     FM231500 07007KT P6SM VCSH SCT025 OVC050=



000
FTUS44 KLZK 230500
TAFHOT
TAF
KHOT 230539Z 2306/2406 09006KT P6SM SCT100 BKN250
     FM230900 09007KT P6SM VCSH FEW020 BKN050 OVC100
      TEMPO 2310/2314 4SM -TSRA BR BKN025CB OVC050
     FM231500 09008KT P6SM VCSH SCT025 OVC050=



000
FTUS44 KLZK 230500
TAFPBF
TAF
KPBF 230539Z 2306/2406 03006KT P6SM SCT100 BKN250
     FM230800 05006KT P6SM VCSH SCT020 BKN080 OVC150
      TEMPO 2310/2314 5SM -TSRA BR BKN035CB OVC080
     FM231500 07007KT P6SM VCSH SCT025 OVC050=



000
FTUS44 KLZK 230500
TAFHRO
TAF
KHRO 230539Z 2306/2406 07005KT P6SM BKN250
     FM230900 08005KT P6SM FEW050 SCT100 BKN250
     FM231200 10007KT P6SM VCSH SCT050 OVC100
     FM231500 12009KT P6SM VCSH BKN050 OVC100=



000
FTUS44 KLZK 230300 AAA
TAFHOT
TAF AMD
KHOT 230358Z 2304/2324 08007KT 5SM BR SCT060 BKN100
     FM230800 09008KT 5SM BR VCSH SCT020 BKN060
      TEMPO 2310/2314 3SM -TSRA BR BKN020CB
     FM231500 09008KT P6SM SCT025 OVC050=



000
FTUS44 KLZK 230300 AAA
TAFHOT
TAF AMD
KHOT 230358Z 2304/2324 08007KT 5SM BR SCT060 BKN100
     FM230800 09008KT 5SM BR VCSH SCT020 BKN060
      TEMPO 2310/2314 3SM -TSRA BR BKN020CB
     FM231500 09008KT P6SM SCT025 OVC050=



000
FTUS44 KLZK 222300
TAFHRO
TAF
KHRO 222337Z 2300/2324 07005KT P6SM BKN250
     FM230800 10005KT P6SM SCT060 BKN100
     FM231500 13009KT P6SM OVC050=



000
FTUS44 KLZK 222300
TAFHOT
TAF
KHOT 222337Z 2300/2324 08007KT P6SM SCT060 BKN100
     FM230800 09008KT P6SM VCSH SCT020 BKN060
      TEMPO 2310/2314 5SM -TSRA BR BKN020CB
     FM231500 09008KT P6SM SCT025 OVC050=



000
FTUS44 KLZK 222300
TAFPBF
TAF
KPBF 222337Z 2300/2324 03006KT P6SM SCT060 BKN100
     FM230800 03008KT P6SM VCSH SCT020 BKN060
      TEMPO 2310/2314 5SM -TSRA BR BKN020CB
     FM231500 05009KT P6SM SCT025 OVC050=



000
FTUS44 KLZK 222300
TAFLIT
TAF
KLIT 222337Z 2300/2324 06006KT P6SM SCT060 BKN100
     FM230800 06007KT P6SM VCSH SCT020 BKN060
      TEMPO 2310/2314 5SM -TSRA BR BKN020CB
     FM231500 07007KT P6SM SCT025 OVC050=



000
FTUS44 KLZK 222300
TAFHOT
TAF
KHOT 222337Z 2300/2324 08007KT P6SM SCT060 BKN100
     FM230800 09008KT P6SM VCSH SCT020 BKN060
      TEMPO 2310/2314 5SM -TSRA BR BKN020CB
     FM231500 09008KT P6SM SCT025 OVC050=



000
FTUS44 KLZK 222300
TAFPBF
TAF
KPBF 222337Z 2300/2324 03006KT P6SM SCT060 BKN100
     FM230800 03008KT P6SM VCSH SCT020 BKN060
      TEMPO 2310/2314 5SM -TSRA BR BKN020CB
     FM231500 05009KT P6SM SCT025 OVC050=



000
FTUS44 KLZK 222300
TAFHRO
TAF
KHRO 222337Z 2300/2324 07005KT P6SM BKN250
     FM230800 10005KT P6SM SCT060 BKN100
     FM231500 13009KT P6SM OVC050=



000
FTUS44 KLZK 222300
TAFLIT
TAF
KLIT 222337Z 2300/2324 06006KT P6SM SCT060 BKN100
     FM230800 06007KT P6SM VCSH SCT020 BKN060
      TEMPO 2310/2314 5SM -TSRA BR BKN020CB
     FM231500 07007KT P6SM SCT025 OVC050=



000
FTUS44 KLZK 222000 AAB
TAFHOT
TAF AMD
KHOT 222057Z 2221/2318 VRB04KT P6SM VCSH SCT030 BKN060
      TEMPO 2221/2223 3SM TSRA BR BKN030CB
     FM222300 07006KT P6SM VCSH BKN070 OVC250
     FM230300 08008KT P6SM SCT060 OVC250
     FM231200 08008KT P6SM SCT025 BKN050 OVC250=



000
FTUS44 KLZK 221900 AAA
TAFHOT
TAF AMD
KHOT 221928Z 2219/2318 28005KT P6SM VCSH BKN040 BKN060 OVC250
      TEMPO 2219/2221 2SM TSRA SCT045 BKN060CB
     FM222300 07006KT P6SM VCSH BKN070 OVC250
     FM230300 08008KT P6SM SCT060 OVC250
     FM231200 08008KT P6SM SCT025 BKN050 OVC250=



000
FTUS44 KLZK 221900 AAA
TAFHOT
TAF AMD
KHOT 221928Z 2219/2318 28005KT P6SM VCSH BKN040 BKN060 OVC250
      TEMPO 2219/2221 2SM TSRA SCT045 BKN060CB
     FM222300 07006KT P6SM VCSH BKN070 OVC250
     FM230300 08008KT P6SM SCT060 OVC250
     FM231200 08008KT P6SM SCT025 BKN050 OVC250=



    US Dept of Commerce
    National Oceanic and Atmospheric Administration
    National Weather Service
    1325 East West Highway
    Silver Spring, MD 20910
    Page Author: NWS Internet Services Team
Disclaimer
Information Quality
Credits
Glossary
Privacy Policy
Freedom of Information Act (FOIA)
About Us
Career Opportunities